sensor_id;sensor_type;location;lat;lon;timestamp;temperature;humidity
23544;DHT22;11950;51.230;4.012;2024-02-23T00:01:56;8.00;99.90
23544;DHT22;11950;51.230;4.012;2024-02-23T00:04:22;8.00;99.90
23544;DHT22;11950;51.230;4.012;2024-02-23T00:24:03;7.90;99.90
23544;DHT22;11950;51.230;4.012;2024-02-23T00:26:38;7.70;99.90
23544;DHT22;11950;51.230;4.012;2024-02-23T00:29:05;7.70;99.90
23544;DHT22;11950;51.230;4.012;2024-02-23T00:31:31;7.70;99.90
23544;DHT22;11950;51.230;4.012;2024-02-23T00:33:57;7.70;99.90
23544;DHT22;11950;51.230;4.012;2024-02-23T00:36:26;7.70;99.90
23544;DHT22;11950;51.230;4.012;2024-02-23T00:42:22;7.80;99.90
23544;DHT22;11950;51.230;4.012;2024-02-23T00:44:48;7.70;99.90
23544;DHT22;11950;51.230;4.012;2024-02-23T00:47:14;7.70;99.90
23544;DHT22;11950;51.230;4.012;2024-02-23T00:49:41;7.80;99.90
23544;DHT22;11950;51.230;4.012;2024-02-23T00:52:07;7.70;99.90
23544;DHT22;11950;51.230;4.012;2024-02-23T00:54:33;7.70;99.90
23544;DHT22;11950;51.230;4.012;2024-02-23T00:56:59;7.70;99.90
23544;DHT22;11950;51.230;4.012;2024-02-23T00:59:25;7.70;99.90
23544;DHT22;11950;51.230;4.012;2024-02-23T01:01:52;7.70;99.90
23544;DHT22;11950;51.230;4.012;2024-02-23T01:04:18;7.70;99.90
23544;DHT22;11950;51.230;4.012;2024-02-23T01:06:44;7.80;99.90
23544;DHT22;11950;51.230;4.012;2024-02-23T01:09:11;7.80;99.90
23544;DHT22;11950;51.230;4.012;2024-02-23T01:11:37;7.80;99.90
23544;DHT22;11950;51.230;4.012;2024-02-23T01:14:03;7.80;99.90
23544;DHT22;11950;51.230;4.012;2024-02-23T01:16:29;7.80;99.90
23544;DHT22;11950;51.230;4.012;2024-02-23T01:18:56;7.80;99.90
23544;DHT22;11950;51.230;4.012;2024-02-23T01:21:23;7.90;99.90
23544;DHT22;11950;51.230;4.012;2024-02-23T01:23:49;7.80;99.90
23544;DHT22;11950;51.230;4.012;2024-02-23T01:26:16;7.90;99.90
23544;DHT22;11950;51.230;4.012;2024-02-23T01:28:42;7.90;99.90
23544;DHT22;11950;51.230;4.012;2024-02-23T01:31:09;7.90;99.90
23544;DHT22;11950;51.230;4.012;2024-02-23T01:33:37;7.90;99.90
23544;DHT22;11950;51.230;4.012;2024-02-23T01:36:07;7.80;99.90
23544;DHT22;11950;51.230;4.012;2024-02-23T01:38:34;7.80;99.90
23544;DHT22;11950;51.230;4.012;2024-02-23T01:41:00;7.70;99.90
23544;DHT22;11950;51.230;4.012;2024-02-23T01:43:27;7.70;99.90
23544;DHT22;11950;51.230;4.012;2024-02-23T01:53:32;7.70;99.90
23544;DHT22;11950;51.230;4.012;2024-02-23T01:57:23;7.70;99.90
23544;DHT22;11950;51.230;4.012;2024-02-23T02:00:07;7.60;99.90
23544;DHT22;11950;51.230;4.012;2024-02-23T02:02:36;7.60;99.90
23544;DHT22;11950;51.230;4.012;2024-02-23T02:05:14;7.60;99.90
23544;DHT22;11950;51.230;4.012;2024-02-23T02:07:43;7.60;99.90
23544;DHT22;11950;51.230;4.012;2024-02-23T02:10:11;7.60;99.90
23544;DHT22;11950;51.230;4.012;2024-02-23T02:12:38;7.50;99.90
23544;DHT22;11950;51.230;4.012;2024-02-23T02:15:05;7.50;99.90
23544;DHT22;11950;51.230;4.012;2024-02-23T02:17:40;7.50;99.90
23544;DHT22;11950;51.230;4.012;2024-02-23T02:20:11;7.50;99.90
23544;DHT22;11950;51.230;4.012;2024-02-23T02:22:37;7.60;99.90
23544;DHT22;11950;51.230;4.012;2024-02-23T02:25:04;7.50;99.90
23544;DHT22;11950;51.230;4.012;2024-02-23T02:27:31;7.50;99.90
23544;DHT22;11950;51.230;4.012;2024-02-23T02:29:58;7.60;99.90
23544;DHT22;11950;51.230;4.012;2024-02-23T02:32:24;7.60;99.90
23544;DHT22;11950;51.230;4.012;2024-02-23T02:34:50;7.60;99.90
23544;DHT22;11950;51.230;4.012;2024-02-23T02:37:17;7.60;99.90
23544;DHT22;11950;51.230;4.012;2024-02-23T02:39:43;7.70;99.90
23544;DHT22;11950;51.230;4.012;2024-02-23T02:42:09;7.70;99.90
23544;DHT22;11950;51.230;4.012;2024-02-23T02:44:35;7.70;99.90
23544;DHT22;11950;51.230;4.012;2024-02-23T02:47:02;7.60;99.90
23544;DHT22;11950;51.230;4.012;2024-02-23T02:49:28;7.60;99.90
23544;DHT22;11950;51.230;4.012;2024-02-23T02:51:54;7.60;99.90
23544;DHT22;11950;51.230;4.012;2024-02-23T02:54:20;7.60;99.90
23544;DHT22;11950;51.230;4.012;2024-02-23T02:56:50;7.60;99.90
23544;DHT22;11950;51.230;4.012;2024-02-23T02:59:20;7.60;99.90
23544;DHT22;11950;51.230;4.012;2024-02-23T03:01:47;7.60;99.90
23544;DHT22;11950;51.230;4.012;2024-02-23T03:04:13;7.60;99.90
23544;DHT22;11950;51.230;4.012;2024-02-23T03:06:39;7.70;99.90
23544;DHT22;11950;51.230;4.012;2024-02-23T03:09:05;7.70;99.90
23544;DHT22;11950;51.230;4.012;2024-02-23T03:11:33;7.60;99.90
23544;DHT22;11950;51.230;4.012;2024-02-23T03:13:59;7.70;99.90
23544;DHT22;11950;51.230;4.012;2024-02-23T03:16:25;7.70;99.90
23544;DHT22;11950;51.230;4.012;2024-02-23T03:18:52;7.70;99.90
23544;DHT22;11950;51.230;4.012;2024-02-23T03:25:16;7.70;99.90
23544;DHT22;11950;51.230;4.012;2024-02-23T03:27:42;7.70;99.90
23544;DHT22;11950;51.230;4.012;2024-02-23T03:30:11;7.70;99.90
23544;DHT22;11950;51.230;4.012;2024-02-23T03:32:41;7.70;99.90
23544;DHT22;11950;51.230;4.012;2024-02-23T03:35:08;7.80;99.90
23544;DHT22;11950;51.230;4.012;2024-02-23T03:37:34;7.80;99.90
23544;DHT22;11950;51.230;4.012;2024-02-23T03:44:02;7.80;99.90
23544;DHT22;11950;51.230;4.012;2024-02-23T03:46:29;7.80;99.90
23544;DHT22;11950;51.230;4.012;2024-02-23T03:49:00;7.90;99.90
23544;DHT22;11950;51.230;4.012;2024-02-23T03:51:27;7.90;99.90
23544;DHT22;11950;51.230;4.012;2024-02-23T03:53:53;7.90;99.90
23544;DHT22;11950;51.230;4.012;2024-02-23T03:56:20;8.00;99.90
23544;DHT22;11950;51.230;4.012;2024-02-23T03:58:46;8.00;99.90
23544;DHT22;11950;51.230;4.012;2024-02-23T04:01:12;7.90;99.90
23544;DHT22;11950;51.230;4.012;2024-02-23T04:03:41;8.00;99.90
23544;DHT22;11950;51.230;4.012;2024-02-23T04:06:08;8.00;99.90
23544;DHT22;11950;51.230;4.012;2024-02-23T04:08:34;8.00;99.90
23544;DHT22;11950;51.230;4.012;2024-02-23T04:11:00;8.00;99.90
23544;DHT22;11950;51.230;4.012;2024-02-23T04:13:26;8.00;99.90
23544;DHT22;11950;51.230;4.012;2024-02-23T04:15:53;8.00;99.90
23544;DHT22;11950;51.230;4.012;2024-02-23T04:18:19;8.00;99.90
23544;DHT22;11950;51.230;4.012;2024-02-23T04:20:47;8.00;99.90
23544;DHT22;11950;51.230;4.012;2024-02-23T04:23:14;8.00;99.90
23544;DHT22;11950;51.230;4.012;2024-02-23T04:25:40;8.00;99.90
23544;DHT22;11950;51.230;4.012;2024-02-23T04:28:07;8.00;99.90
23544;DHT22;11950;51.230;4.012;2024-02-23T04:30:33;8.00;99.90
23544;DHT22;11950;51.230;4.012;2024-02-23T04:32:59;7.90;99.90
23544;DHT22;11950;51.230;4.012;2024-02-23T04:35:26;7.90;99.90
23544;DHT22;11950;51.230;4.012;2024-02-23T04:37:52;7.90;99.90
23544;DHT22;11950;51.230;4.012;2024-02-23T04:40:18;7.90;99.90
23544;DHT22;11950;51.230;4.012;2024-02-23T04:42:45;7.90;99.90
23544;DHT22;11950;51.230;4.012;2024-02-23T04:45:13;7.90;99.90
23544;DHT22;11950;51.230;4.012;2024-02-23T04:47:39;7.90;99.90
23544;DHT22;11950;51.230;4.012;2024-02-23T04:50:06;7.90;99.90
23544;DHT22;11950;51.230;4.012;2024-02-23T04:52:33;7.90;99.90
23544;DHT22;11950;51.230;4.012;2024-02-23T04:54:59;7.90;99.90
23544;DHT22;11950;51.230;4.012;2024-02-23T04:57:25;7.90;99.90
23544;DHT22;11950;51.230;4.012;2024-02-23T04:59:52;7.90;99.90
23544;DHT22;11950;51.230;4.012;2024-02-23T05:02:18;7.90;99.90
23544;DHT22;11950;51.230;4.012;2024-02-23T05:04:45;7.90;99.90
23544;DHT22;11950;51.230;4.012;2024-02-23T05:07:11;7.90;99.90
23544;DHT22;11950;51.230;4.012;2024-02-23T05:09:37;7.80;99.90
23544;DHT22;11950;51.230;4.012;2024-02-23T05:12:04;7.80;99.90
23544;DHT22;11950;51.230;4.012;2024-02-23T05:14:31;7.80;99.90
23544;DHT22;11950;51.230;4.012;2024-02-23T05:16:57;7.80;99.90
23544;DHT22;11950;51.230;4.012;2024-02-23T05:19:24;7.80;99.90
23544;DHT22;11950;51.230;4.012;2024-02-23T05:21:50;7.80;99.90
23544;DHT22;11950;51.230;4.012;2024-02-23T05:24:17;7.80;99.90
23544;DHT22;11950;51.230;4.012;2024-02-23T05:26:43;7.80;99.90
23544;DHT22;11950;51.230;4.012;2024-02-23T05:29:10;7.80;99.90
23544;DHT22;11950;51.230;4.012;2024-02-23T05:31:46;7.70;99.90
23544;DHT22;11950;51.230;4.012;2024-02-23T05:34:13;7.70;99.90
23544;DHT22;11950;51.230;4.012;2024-02-23T05:36:40;7.70;99.90
23544;DHT22;11950;51.230;4.012;2024-02-23T05:39:06;7.70;99.90
23544;DHT22;11950;51.230;4.012;2024-02-23T05:41:33;7.70;99.90
23544;DHT22;11950;51.230;4.012;2024-02-23T05:44:00;7.70;99.90
23544;DHT22;11950;51.230;4.012;2024-02-23T05:46:27;7.70;99.90
23544;DHT22;11950;51.230;4.012;2024-02-23T05:48:53;7.70;99.90
23544;DHT22;11950;51.230;4.012;2024-02-23T05:51:22;7.70;99.90
23544;DHT22;11950;51.230;4.012;2024-02-23T05:53:48;7.70;99.90
23544;DHT22;11950;51.230;4.012;2024-02-23T05:56:14;7.70;99.90
23544;DHT22;11950;51.230;4.012;2024-02-23T05:58:41;7.70;99.90
23544;DHT22;11950;51.230;4.012;2024-02-23T06:01:07;7.70;99.90
23544;DHT22;11950;51.230;4.012;2024-02-23T06:03:33;7.70;99.90
23544;DHT22;11950;51.230;4.012;2024-02-23T06:06:00;7.70;99.90
23544;DHT22;11950;51.230;4.012;2024-02-23T06:08:26;7.70;99.90
23544;DHT22;11950;51.230;4.012;2024-02-23T06:10:52;7.70;99.90
23544;DHT22;11950;51.230;4.012;2024-02-23T06:13:19;7.70;99.90
23544;DHT22;11950;51.230;4.012;2024-02-23T06:15:45;7.60;99.90
23544;DHT22;11950;51.230;4.012;2024-02-23T06:18:11;7.70;99.90
23544;DHT22;11950;51.230;4.012;2024-02-23T06:20:38;7.70;99.90
23544;DHT22;11950;51.230;4.012;2024-02-23T06:23:05;7.70;99.90
23544;DHT22;11950;51.230;4.012;2024-02-23T06:25:31;7.70;99.90
23544;DHT22;11950;51.230;4.012;2024-02-23T06:27:58;7.80;99.90
23544;DHT22;11950;51.230;4.012;2024-02-23T06:30:24;7.80;99.90
23544;DHT22;11950;51.230;4.012;2024-02-23T06:32:51;7.80;99.90
23544;DHT22;11950;51.230;4.012;2024-02-23T06:35:17;7.80;99.90
23544;DHT22;11950;51.230;4.012;2024-02-23T06:37:43;7.90;99.90
23544;DHT22;11950;51.230;4.012;2024-02-23T06:40:10;7.90;99.90
23544;DHT22;11950;51.230;4.012;2024-02-23T06:42:36;7.90;99.90
23544;DHT22;11950;51.230;4.012;2024-02-23T06:45:03;7.90;99.90
23544;DHT22;11950;51.230;4.012;2024-02-23T06:47:31;8.00;99.90
23544;DHT22;11950;51.230;4.012;2024-02-23T06:49:57;8.00;99.90
23544;DHT22;11950;51.230;4.012;2024-02-23T06:52:24;8.00;99.90
23544;DHT22;11950;51.230;4.012;2024-02-23T06:54:52;8.00;99.90
23544;DHT22;11950;51.230;4.012;2024-02-23T06:57:18;8.10;99.90
23544;DHT22;11950;51.230;4.012;2024-02-23T06:59:44;8.10;99.90
23544;DHT22;11950;51.230;4.012;2024-02-23T07:02:11;8.10;99.90
23544;DHT22;11950;51.230;4.012;2024-02-23T07:04:37;8.10;99.90
23544;DHT22;11950;51.230;4.012;2024-02-23T07:07:03;8.10;99.90
23544;DHT22;11950;51.230;4.012;2024-02-23T07:09:33;8.10;99.90
23544;DHT22;11950;51.230;4.012;2024-02-23T07:12:00;8.10;99.90
23544;DHT22;11950;51.230;4.012;2024-02-23T07:14:27;8.10;99.90
23544;DHT22;11950;51.230;4.012;2024-02-23T07:16:53;8.20;99.90
23544;DHT22;11950;51.230;4.012;2024-02-23T07:19:19;8.20;99.90
23544;DHT22;11950;51.230;4.012;2024-02-23T07:21:46;8.20;99.90
23544;DHT22;11950;51.230;4.012;2024-02-23T07:24:13;8.20;99.90
23544;DHT22;11950;51.230;4.012;2024-02-23T07:26:39;8.30;99.90
23544;DHT22;11950;51.230;4.012;2024-02-23T07:29:06;8.30;99.90
23544;DHT22;11950;51.230;4.012;2024-02-23T07:31:33;8.30;99.90
23544;DHT22;11950;51.230;4.012;2024-02-23T07:33:59;8.40;99.90
23544;DHT22;11950;51.230;4.012;2024-02-23T07:36:27;8.40;99.90
23544;DHT22;11950;51.230;4.012;2024-02-23T07:38:53;8.40;99.90
23544;DHT22;11950;51.230;4.012;2024-02-23T07:41:19;8.40;99.90
23544;DHT22;11950;51.230;4.012;2024-02-23T07:43:45;8.40;99.90
23544;DHT22;11950;51.230;4.012;2024-02-23T07:46:12;8.40;99.90
23544;DHT22;11950;51.230;4.012;2024-02-23T07:48:39;8.40;99.90
23544;DHT22;11950;51.230;4.012;2024-02-23T07:51:05;8.40;99.90
23544;DHT22;11950;51.230;4.012;2024-02-23T07:53:31;8.40;99.90
23544;DHT22;11950;51.230;4.012;2024-02-23T07:55:59;8.40;99.90
23544;DHT22;11950;51.230;4.012;2024-02-23T07:58:28;8.40;99.90
23544;DHT22;11950;51.230;4.012;2024-02-23T08:00:54;8.40;99.90
23544;DHT22;11950;51.230;4.012;2024-02-23T08:03:20;8.30;99.90
23544;DHT22;11950;51.230;4.012;2024-02-23T08:05:47;8.30;99.90
23544;DHT22;11950;51.230;4.012;2024-02-23T08:08:13;8.30;99.90
23544;DHT22;11950;51.230;4.012;2024-02-23T08:10:39;8.30;99.90
23544;DHT22;11950;51.230;4.012;2024-02-23T08:13:05;8.30;99.90
23544;DHT22;11950;51.230;4.012;2024-02-23T08:15:32;8.30;99.90
23544;DHT22;11950;51.230;4.012;2024-02-23T08:17:58;8.30;99.90
23544;DHT22;11950;51.230;4.012;2024-02-23T08:20:24;8.30;99.90
23544;DHT22;11950;51.230;4.012;2024-02-23T08:22:50;8.30;99.90
23544;DHT22;11950;51.230;4.012;2024-02-23T08:25:17;8.40;99.90
23544;DHT22;11950;51.230;4.012;2024-02-23T08:27:44;8.40;99.90
23544;DHT22;11950;51.230;4.012;2024-02-23T08:30:10;8.40;99.90
23544;DHT22;11950;51.230;4.012;2024-02-23T08:32:40;8.40;99.90
23544;DHT22;11950;51.230;4.012;2024-02-23T08:35:07;8.40;99.90
23544;DHT22;11950;51.230;4.012;2024-02-23T08:37:34;8.40;99.90
23544;DHT22;11950;51.230;4.012;2024-02-23T08:40:00;8.40;99.90
23544;DHT22;11950;51.230;4.012;2024-02-23T08:42:27;8.50;99.90
23544;DHT22;11950;51.230;4.012;2024-02-23T08:44:53;8.70;99.90
23544;DHT22;11950;51.230;4.012;2024-02-23T08:47:20;8.80;99.90
23544;DHT22;11950;51.230;4.012;2024-02-23T08:49:46;9.00;99.90
23544;DHT22;11950;51.230;4.012;2024-02-23T08:52:13;9.10;99.90
23544;DHT22;11950;51.230;4.012;2024-02-23T08:54:39;9.20;99.90
23544;DHT22;11950;51.230;4.012;2024-02-23T08:57:05;9.30;99.90
23544;DHT22;11950;51.230;4.012;2024-02-23T08:59:32;9.40;99.90
23544;DHT22;11950;51.230;4.012;2024-02-23T09:01:58;9.40;99.90
23544;DHT22;11950;51.230;4.012;2024-02-23T09:04:24;9.50;99.90
23544;DHT22;11950;51.230;4.012;2024-02-23T09:06:51;9.50;99.90
23544;DHT22;11950;51.230;4.012;2024-02-23T09:09:19;9.50;99.90
23544;DHT22;11950;51.230;4.012;2024-02-23T09:11:45;9.50;99.90
23544;DHT22;11950;51.230;4.012;2024-02-23T09:14:11;9.60;99.90
23544;DHT22;11950;51.230;4.012;2024-02-23T09:16:37;9.70;99.90
23544;DHT22;11950;51.230;4.012;2024-02-23T09:19:04;9.70;99.90
23544;DHT22;11950;51.230;4.012;2024-02-23T09:21:31;9.70;99.90
23544;DHT22;11950;51.230;4.012;2024-02-23T09:23:57;9.60;99.90
23544;DHT22;11950;51.230;4.012;2024-02-23T09:26:23;9.60;99.90
23544;DHT22;11950;51.230;4.012;2024-02-23T09:28:49;9.60;99.90
23544;DHT22;11950;51.230;4.012;2024-02-23T09:31:16;9.50;99.90
23544;DHT22;11950;51.230;4.012;2024-02-23T09:33:42;9.50;99.90
23544;DHT22;11950;51.230;4.012;2024-02-23T09:36:09;9.50;99.90
23544;DHT22;11950;51.230;4.012;2024-02-23T09:38:36;9.50;99.90
23544;DHT22;11950;51.230;4.012;2024-02-23T09:41:03;9.50;99.90
23544;DHT22;11950;51.230;4.012;2024-02-23T09:43:30;9.60;99.90
23544;DHT22;11950;51.230;4.012;2024-02-23T09:45:58;9.60;99.90
23544;DHT22;11950;51.230;4.012;2024-02-23T09:48:25;9.60;99.90
23544;DHT22;11950;51.230;4.012;2024-02-23T09:50:52;9.70;99.90
23544;DHT22;11950;51.230;4.012;2024-02-23T09:53:19;9.70;99.90
23544;DHT22;11950;51.230;4.012;2024-02-23T09:55:49;9.70;99.90
23544;DHT22;11950;51.230;4.012;2024-02-23T09:58:17;9.70;99.90
23544;DHT22;11950;51.230;4.012;2024-02-23T10:00:44;9.70;99.90
23544;DHT22;11950;51.230;4.012;2024-02-23T10:03:10;9.80;99.90
23544;DHT22;11950;51.230;4.012;2024-02-23T10:05:37;9.70;99.90
23544;DHT22;11950;51.230;4.012;2024-02-23T10:08:04;9.80;99.90
23544;DHT22;11950;51.230;4.012;2024-02-23T10:10:33;9.80;99.90
23544;DHT22;11950;51.230;4.012;2024-02-23T10:13:02;9.80;99.90
23544;DHT22;11950;51.230;4.012;2024-02-23T10:15:32;9.90;99.90
23544;DHT22;11950;51.230;4.012;2024-02-23T10:17:58;9.90;99.90
23544;DHT22;11950;51.230;4.012;2024-02-23T10:20:25;9.90;99.90
23544;DHT22;11950;51.230;4.012;2024-02-23T10:22:51;9.90;99.90
23544;DHT22;11950;51.230;4.012;2024-02-23T10:25:20;9.90;99.90
23544;DHT22;11950;51.230;4.012;2024-02-23T10:27:46;9.90;99.90
23544;DHT22;11950;51.230;4.012;2024-02-23T10:30:13;9.90;99.90
23544;DHT22;11950;51.230;4.012;2024-02-23T10:32:41;10.00;99.90
23544;DHT22;11950;51.230;4.012;2024-02-23T10:35:14;10.00;99.90
23544;DHT22;11950;51.230;4.012;2024-02-23T10:37:43;10.00;99.90
23544;DHT22;11950;51.230;4.012;2024-02-23T10:40:12;10.00;99.90
23544;DHT22;11950;51.230;4.012;2024-02-23T10:42:41;10.10;99.90
23544;DHT22;11950;51.230;4.012;2024-02-23T10:45:10;10.10;99.90
23544;DHT22;11950;51.230;4.012;2024-02-23T10:47:37;10.10;99.90
23544;DHT22;11950;51.230;4.012;2024-02-23T10:50:04;10.20;99.90
23544;DHT22;11950;51.230;4.012;2024-02-23T10:52:32;10.30;99.90
23544;DHT22;11950;51.230;4.012;2024-02-23T10:55:00;10.40;99.90
23544;DHT22;11950;51.230;4.012;2024-02-23T10:57:31;10.50;99.90
23544;DHT22;11950;51.230;4.012;2024-02-23T11:00:00;10.50;99.90
23544;DHT22;11950;51.230;4.012;2024-02-23T11:02:28;10.60;99.90
23544;DHT22;11950;51.230;4.012;2024-02-23T11:04:57;10.70;99.90
23544;DHT22;11950;51.230;4.012;2024-02-23T11:07:24;10.70;99.90
23544;DHT22;11950;51.230;4.012;2024-02-23T11:09:58;10.70;99.90
23544;DHT22;11950;51.230;4.012;2024-02-23T11:12:31;10.70;99.90
23544;DHT22;11950;51.230;4.012;2024-02-23T11:15:01;10.60;99.90
23544;DHT22;11950;51.230;4.012;2024-02-23T11:17:29;10.60;99.90
23544;DHT22;11950;51.230;4.012;2024-02-23T11:19:56;10.60;99.90
23544;DHT22;11950;51.230;4.012;2024-02-23T11:22:27;10.60;99.90
23544;DHT22;11950;51.230;4.012;2024-02-23T11:25:07;10.50;99.90
23544;DHT22;11950;51.230;4.012;2024-02-23T11:27:37;10.50;99.90
23544;DHT22;11950;51.230;4.012;2024-02-23T11:30:07;10.50;99.90
23544;DHT22;11950;51.230;4.012;2024-02-23T11:32:40;10.50;99.90
23544;DHT22;11950;51.230;4.012;2024-02-23T11:35:09;10.60;99.90
23544;DHT22;11950;51.230;4.012;2024-02-23T11:37:46;10.60;99.90
23544;DHT22;11950;51.230;4.012;2024-02-23T11:40:13;10.60;99.90
23544;DHT22;11950;51.230;4.012;2024-02-23T11:42:43;10.70;99.90
23544;DHT22;11950;51.230;4.012;2024-02-23T11:45:10;10.70;99.90
23544;DHT22;11950;51.230;4.012;2024-02-23T11:47:37;10.80;99.90
23544;DHT22;11950;51.230;4.012;2024-02-23T11:50:13;10.90;99.90
23544;DHT22;11950;51.230;4.012;2024-02-23T11:52:41;10.90;99.90
23544;DHT22;11950;51.230;4.012;2024-02-23T11:55:07;10.90;99.90
23544;DHT22;11950;51.230;4.012;2024-02-23T11:57:38;10.90;99.90
23544;DHT22;11950;51.230;4.012;2024-02-23T12:00:05;10.90;99.90
23544;DHT22;11950;51.230;4.012;2024-02-23T12:02:36;11.00;99.90
23544;DHT22;11950;51.230;4.012;2024-02-23T12:05:03;11.00;99.90
23544;DHT22;11950;51.230;4.012;2024-02-23T12:07:29;10.90;99.90
23544;DHT22;11950;51.230;4.012;2024-02-23T12:09:56;11.00;99.90
23544;DHT22;11950;51.230;4.012;2024-02-23T12:12:25;11.00;99.90
23544;DHT22;11950;51.230;4.012;2024-02-23T12:14:52;11.00;99.90
23544;DHT22;11950;51.230;4.012;2024-02-23T12:17:18;11.10;99.90
23544;DHT22;11950;51.230;4.012;2024-02-23T12:19:45;11.20;99.90
23544;DHT22;11950;51.230;4.012;2024-02-23T12:22:11;11.20;99.90
23544;DHT22;11950;51.230;4.012;2024-02-23T12:24:40;11.20;99.90
23544;DHT22;11950;51.230;4.012;2024-02-23T12:27:07;11.30;99.90
23544;DHT22;11950;51.230;4.012;2024-02-23T12:29:33;11.40;99.90
23544;DHT22;11950;51.230;4.012;2024-02-23T12:32:04;11.40;99.90
23544;DHT22;11950;51.230;4.012;2024-02-23T12:34:31;11.40;99.90
23544;DHT22;11950;51.230;4.012;2024-02-23T12:36:57;11.40;99.90
23544;DHT22;11950;51.230;4.012;2024-02-23T12:39:24;11.40;99.90
23544;DHT22;11950;51.230;4.012;2024-02-23T12:41:50;11.50;99.90
23544;DHT22;11950;51.230;4.012;2024-02-23T12:44:17;11.50;99.90
23544;DHT22;11950;51.230;4.012;2024-02-23T12:46:43;11.50;99.90
23544;DHT22;11950;51.230;4.012;2024-02-23T12:49:09;11.50;99.90
23544;DHT22;11950;51.230;4.012;2024-02-23T12:51:36;11.50;99.90
23544;DHT22;11950;51.230;4.012;2024-02-23T12:54:02;11.50;99.90
23544;DHT22;11950;51.230;4.012;2024-02-23T12:56:30;11.50;99.90
23544;DHT22;11950;51.230;4.012;2024-02-23T12:58:56;11.60;99.90
23544;DHT22;11950;51.230;4.012;2024-02-23T13:01:23;11.50;99.90
23544;DHT22;11950;51.230;4.012;2024-02-23T13:03:50;11.60;99.90
23544;DHT22;11950;51.230;4.012;2024-02-23T13:06:16;11.60;99.90
23544;DHT22;11950;51.230;4.012;2024-02-23T13:08:43;11.70;99.90
23544;DHT22;11950;51.230;4.012;2024-02-23T13:11:09;11.70;99.90
23544;DHT22;11950;51.230;4.012;2024-02-23T13:13:37;11.70;99.90
23544;DHT22;11950;51.230;4.012;2024-02-23T13:16:03;11.70;99.90
23544;DHT22;11950;51.230;4.012;2024-02-23T13:18:30;11.80;99.90
23544;DHT22;11950;51.230;4.012;2024-02-23T13:20:56;11.80;99.90
23544;DHT22;11950;51.230;4.012;2024-02-23T13:23:22;11.80;99.90
23544;DHT22;11950;51.230;4.012;2024-02-23T13:25:49;11.80;99.90
23544;DHT22;11950;51.230;4.012;2024-02-23T13:28:15;11.80;99.90
23544;DHT22;11950;51.230;4.012;2024-02-23T13:30:41;11.80;99.90
23544;DHT22;11950;51.230;4.012;2024-02-23T13:33:08;11.90;99.90
23544;DHT22;11950;51.230;4.012;2024-02-23T13:35:36;11.90;99.90
23544;DHT22;11950;51.230;4.012;2024-02-23T13:38:03;11.90;99.90
23544;DHT22;11950;51.230;4.012;2024-02-23T13:40:30;11.90;99.90
23544;DHT22;11950;51.230;4.012;2024-02-23T13:42:57;12.00;99.90
23544;DHT22;11950;51.230;4.012;2024-02-23T13:45:23;12.00;99.90
23544;DHT22;11950;51.230;4.012;2024-02-23T13:47:58;12.00;99.90
23544;DHT22;11950;51.230;4.012;2024-02-23T13:50:25;12.00;99.90
23544;DHT22;11950;51.230;4.012;2024-02-23T13:52:52;12.10;99.90
23544;DHT22;11950;51.230;4.012;2024-02-23T13:55:18;12.00;99.90
23544;DHT22;11950;51.230;4.012;2024-02-23T13:57:48;12.10;99.90
23544;DHT22;11950;51.230;4.012;2024-02-23T14:00:16;12.10;99.90
23544;DHT22;11950;51.230;4.012;2024-02-23T14:02:42;12.00;99.90
23544;DHT22;11950;51.230;4.012;2024-02-23T14:05:10;12.00;99.90
23544;DHT22;11950;51.230;4.012;2024-02-23T14:07:37;12.00;99.90
23544;DHT22;11950;51.230;4.012;2024-02-23T14:10:03;12.00;99.90
23544;DHT22;11950;51.230;4.012;2024-02-23T14:12:30;12.00;99.90
23544;DHT22;11950;51.230;4.012;2024-02-23T14:14:56;12.00;99.90
23544;DHT22;11950;51.230;4.012;2024-02-23T14:17:23;12.00;99.90
23544;DHT22;11950;51.230;4.012;2024-02-23T14:19:49;12.00;99.90
23544;DHT22;11950;51.230;4.012;2024-02-23T14:22:16;12.10;99.90
23544;DHT22;11950;51.230;4.012;2024-02-23T14:24:43;12.10;99.90
23544;DHT22;11950;51.230;4.012;2024-02-23T14:27:10;12.10;99.90
23544;DHT22;11950;51.230;4.012;2024-02-23T14:29:36;12.10;99.90
23544;DHT22;11950;51.230;4.012;2024-02-23T14:32:03;12.10;99.90
23544;DHT22;11950;51.230;4.012;2024-02-23T14:34:30;12.10;99.90
23544;DHT22;11950;51.230;4.012;2024-02-23T14:36:59;11.90;99.90
23544;DHT22;11950;51.230;4.012;2024-02-23T14:39:26;11.90;99.90
23544;DHT22;11950;51.230;4.012;2024-02-23T14:41:52;12.00;99.90
23544;DHT22;11950;51.230;4.012;2024-02-23T14:44:18;12.00;99.90
23544;DHT22;11950;51.230;4.012;2024-02-23T14:46:45;12.10;99.90
23544;DHT22;11950;51.230;4.012;2024-02-23T14:49:11;12.10;99.90
23544;DHT22;11950;51.230;4.012;2024-02-23T14:51:38;12.10;99.90
23544;DHT22;11950;51.230;4.012;2024-02-23T14:54:05;12.00;99.90
23544;DHT22;11950;51.230;4.012;2024-02-23T14:56:32;12.00;99.90
23544;DHT22;11950;51.230;4.012;2024-02-23T14:58:58;11.90;99.90
23544;DHT22;11950;51.230;4.012;2024-02-23T15:01:25;11.80;99.90
23544;DHT22;11950;51.230;4.012;2024-02-23T15:03:51;11.60;99.90
23544;DHT22;11950;51.230;4.012;2024-02-23T15:06:17;11.50;99.90
23544;DHT22;11950;51.230;4.012;2024-02-23T15:08:45;11.30;99.90
23544;DHT22;11950;51.230;4.012;2024-02-23T15:11:12;11.10;99.90
23544;DHT22;11950;51.230;4.012;2024-02-23T15:13:38;10.90;99.90
23544;DHT22;11950;51.230;4.012;2024-02-23T15:16:05;10.70;99.90
23544;DHT22;11950;51.230;4.012;2024-02-23T15:18:32;10.60;99.90
23544;DHT22;11950;51.230;4.012;2024-02-23T15:20:58;10.50;99.90
23544;DHT22;11950;51.230;4.012;2024-02-23T15:23:24;10.50;99.90
23544;DHT22;11950;51.230;4.012;2024-02-23T15:25:51;10.50;99.90
23544;DHT22;11950;51.230;4.012;2024-02-23T15:28:17;10.50;99.90
23544;DHT22;11950;51.230;4.012;2024-02-23T15:30:49;10.50;99.90
23544;DHT22;11950;51.230;4.012;2024-02-23T15:33:16;10.50;99.90
23544;DHT22;11950;51.230;4.012;2024-02-23T15:35:42;10.60;99.90
23544;DHT22;11950;51.230;4.012;2024-02-23T15:38:08;10.60;99.90
23544;DHT22;11950;51.230;4.012;2024-02-23T15:40:35;10.60;99.90
23544;DHT22;11950;51.230;4.012;2024-02-23T15:43:01;10.70;99.90
23544;DHT22;11950;51.230;4.012;2024-02-23T15:45:27;10.70;99.90
23544;DHT22;11950;51.230;4.012;2024-02-23T15:47:53;10.70;99.90
23544;DHT22;11950;51.230;4.012;2024-02-23T15:50:20;10.80;99.90
23544;DHT22;11950;51.230;4.012;2024-02-23T15:52:46;10.80;99.90
23544;DHT22;11950;51.230;4.012;2024-02-23T15:55:13;10.80;99.90
23544;DHT22;11950;51.230;4.012;2024-02-23T15:57:40;10.70;99.90
23544;DHT22;11950;51.230;4.012;2024-02-23T16:00:07;10.70;99.90
23544;DHT22;11950;51.230;4.012;2024-02-23T16:02:34;10.70;99.90
23544;DHT22;11950;51.230;4.012;2024-02-23T16:05:02;10.60;99.90
23544;DHT22;11950;51.230;4.012;2024-02-23T16:07:29;10.60;99.90
23544;DHT22;11950;51.230;4.012;2024-02-23T16:09:55;10.50;99.90
23544;DHT22;11950;51.230;4.012;2024-02-23T16:12:22;10.50;99.90
23544;DHT22;11950;51.230;4.012;2024-02-23T16:14:48;10.40;99.90
23544;DHT22;11950;51.230;4.012;2024-02-23T16:17:15;10.40;99.90